createdAt,value
2023-12-28T00:00:02.842Z,3.80
2023-12-28T00:01:06.511Z,3.80
2023-12-28T00:02:10.126Z,4.20
2023-12-28T00:03:12.576Z,4.17
2023-12-28T00:04:15.021Z,3.50
2023-12-28T00:05:17.476Z,3.77
2023-12-28T00:06:21.204Z,4.00
2023-12-28T00:07:23.598Z,3.50
2023-12-28T00:08:26.147Z,4.00
2023-12-28T00:09:28.999Z,4.00
2023-12-28T00:10:31.380Z,4.00
2023-12-28T00:11:35.089Z,3.60
2023-12-28T00:12:37.505Z,3.80
2023-12-28T00:13:39.949Z,3.60
2023-12-28T00:14:42.409Z,4.20
2023-12-28T00:15:44.898Z,3.90
2023-12-28T00:16:47.313Z,3.83
2023-12-28T00:17:49.803Z,4.00
2023-12-28T00:18:52.385Z,4.03
2023-12-28T00:19:54.950Z,3.90
2023-12-28T00:20:57.655Z,4.00
2023-12-28T00:21:59.976Z,3.70
2023-12-28T00:23:03.014Z,4.00
2023-12-28T00:24:05.590Z,3.90
2023-12-28T00:25:08.862Z,3.70
2023-12-28T00:26:11.242Z,3.80
2023-12-28T00:27:13.590Z,3.90
2023-12-28T00:28:16.013Z,4.10
2023-12-28T00:29:18.503Z,3.90
2023-12-28T00:30:20.892Z,3.93
2023-12-28T00:31:23.490Z,3.70
2023-12-28T00:32:25.949Z,4.07
2023-12-28T00:33:28.335Z,4.13
2023-12-28T00:34:30.854Z,4.23
2023-12-28T00:35:33.792Z,3.90
2023-12-28T00:36:36.470Z,3.67
2023-12-28T00:37:40.827Z,4.00
2023-12-28T00:38:43.387Z,4.40
2023-12-28T00:39:48.322Z,4.20
2023-12-28T00:40:50.848Z,3.90
2023-12-28T00:41:53.226Z,4.10
2023-12-28T00:42:55.621Z,3.90
2023-12-28T00:43:58.058Z,4.33
2023-12-28T00:45:00.885Z,4.50
2023-12-28T00:46:03.524Z,4.03
2023-12-28T00:47:08.074Z,4.30
2023-12-28T00:48:10.585Z,4.37
2023-12-28T00:49:13.237Z,4.13
2023-12-28T00:50:18.248Z,4.30
2023-12-28T00:51:22.688Z,4.20
2023-12-28T00:52:25.195Z,4.10
2023-12-28T00:53:28.553Z,4.27
2023-12-28T00:54:31.905Z,4.07
2023-12-28T00:55:34.392Z,4.33
2023-12-28T00:56:38.260Z,4.23
2023-12-28T00:57:40.760Z,4.13
2023-12-28T00:58:45.229Z,4.00
2023-12-28T00:59:47.707Z,4.07
2023-12-28T01:00:50.273Z,3.93
2023-12-28T01:01:52.944Z,3.67
2023-12-28T01:02:55.357Z,3.87
2023-12-28T01:03:58.148Z,3.73
2023-12-28T01:05:00.733Z,3.37
2023-12-28T01:06:03.537Z,3.80
2023-12-28T01:07:07.362Z,3.53
2023-12-28T01:08:09.847Z,3.30
2023-12-28T01:09:12.669Z,3.37
2023-12-28T01:10:15.082Z,3.77
2023-12-28T01:11:17.428Z,3.30
2023-12-28T01:12:19.773Z,3.37
2023-12-28T01:13:22.187Z,3.10
2023-12-28T01:14:24.521Z,3.20
2023-12-28T01:15:26.970Z,3.13
2023-12-28T01:16:30.370Z,3.27
2023-12-28T01:17:33.047Z,3.10
2023-12-28T01:18:35.652Z,3.23
2023-12-28T01:19:38.392Z,3.00
2023-12-28T01:20:40.953Z,2.80
2023-12-28T01:21:43.801Z,3.07
2023-12-28T01:22:46.188Z,3.10
2023-12-28T01:23:50.042Z,2.80
2023-12-28T01:24:52.604Z,2.60
2023-12-28T01:25:57.587Z,3.10
2023-12-28T01:27:00.345Z,2.90
2023-12-28T01:28:02.976Z,2.77
2023-12-28T01:29:05.763Z,2.70
2023-12-28T01:30:08.914Z,3.10
2023-12-28T01:31:11.747Z,2.80
2023-12-28T01:32:15.225Z,2.70
2023-12-28T01:33:18.426Z,2.60
2023-12-28T01:34:21.285Z,2.90
2023-12-28T01:35:25.415Z,2.97
2023-12-28T01:36:30.829Z,2.80
2023-12-28T01:37:34.997Z,2.90
2023-12-28T01:38:37.386Z,2.80
2023-12-28T01:39:40.617Z,2.77
2023-12-28T01:40:47.465Z,2.80
2023-12-28T01:41:51.298Z,2.90
2023-12-28T01:42:54.254Z,2.97
2023-12-28T01:43:56.642Z,2.67
2023-12-28T01:44:59.347Z,2.70
2023-12-28T01:46:02.311Z,2.77
2023-12-28T01:47:05.242Z,2.70
2023-12-28T01:48:08.398Z,2.67
2023-12-28T01:49:11.103Z,2.67
2023-12-28T01:50:13.683Z,2.50
2023-12-28T01:51:17.069Z,2.70
2023-12-28T01:52:19.710Z,2.57
2023-12-28T01:53:22.451Z,2.90
2023-12-28T01:54:24.901Z,2.20
2023-12-28T01:55:28.917Z,2.60
2023-12-28T01:56:31.418Z,2.70
2023-12-28T01:57:33.918Z,2.30
2023-12-28T01:58:38.037Z,2.30
2023-12-28T01:59:41.310Z,2.23
2023-12-28T02:00:44.141Z,2.40
2023-12-28T02:01:47.519Z,2.20
2023-12-28T02:02:50.050Z,2.23
2023-12-28T02:03:52.849Z,2.10
2023-12-28T02:04:55.688Z,2.20
2023-12-28T02:05:58.810Z,2.07
2023-12-28T02:07:02.091Z,2.30
2023-12-28T02:08:05.225Z,2.10
2023-12-28T02:09:08.866Z,2.00
2023-12-28T02:10:11.284Z,2.03
2023-12-28T02:11:13.657Z,2.20
2023-12-28T02:12:16.232Z,2.20
2023-12-28T02:13:18.676Z,2.10
2023-12-28T02:14:22.970Z,2.20
2023-12-28T02:15:26.363Z,1.90
2023-12-28T02:16:37.887Z,2.40
2023-12-28T02:17:58.100Z,1.90
2023-12-28T02:19:11.413Z,1.80
2023-12-28T02:20:16.006Z,1.97
2023-12-28T02:21:20.127Z,1.60
2023-12-28T02:22:25.253Z,1.70
2023-12-28T02:23:27.680Z,1.80
2023-12-28T02:24:30.070Z,1.90
2023-12-28T02:25:33.790Z,1.83
2023-12-28T02:26:36.447Z,1.73
2023-12-28T02:27:44.041Z,1.53
2023-12-28T02:28:47.989Z,1.67
2023-12-28T02:29:50.508Z,1.83
2023-12-28T02:30:53.260Z,1.60
2023-12-28T02:32:02.305Z,1.40
2023-12-28T02:33:21.461Z,1.47
2023-12-28T02:34:30.898Z,1.27
2023-12-28T02:35:36.712Z,1.10
2023-12-28T02:36:43.520Z,1.30
2023-12-28T02:37:49.109Z,1.20
2023-12-28T02:38:53.501Z,1.20
2023-12-28T02:39:56.392Z,1.10
2023-12-28T02:40:59.317Z,1.00
2023-12-28T02:42:02.814Z,1.10
2023-12-28T02:43:06.974Z,0.90
2023-12-28T02:44:09.347Z,1.00
2023-12-28T02:45:12.389Z,1.03
2023-12-28T02:46:14.804Z,1.00
2023-12-28T02:47:17.469Z,0.70
2023-12-28T02:48:20.115Z,0.80
2023-12-28T02:49:22.733Z,1.00
2023-12-28T02:50:26.179Z,0.97
2023-12-28T02:51:29.502Z,1.00
2023-12-28T02:52:31.894Z,0.97
2023-12-28T02:53:34.593Z,0.97
2023-12-28T02:54:37.274Z,1.00
2023-12-28T02:55:39.659Z,0.90
2023-12-28T02:56:42.824Z,1.20
2023-12-28T02:57:46.825Z,0.93
2023-12-28T02:58:49.240Z,1.00
2023-12-28T02:59:51.965Z,1.10
2023-12-28T03:00:54.647Z,0.87
2023-12-28T03:01:57.863Z,0.90
2023-12-28T03:03:00.524Z,1.23
2023-12-28T03:04:03.853Z,1.00
2023-12-28T03:05:07.120Z,1.00
2023-12-28T03:06:12.342Z,1.00
2023-12-28T03:07:14.745Z,1.00
2023-12-28T03:08:17.161Z,1.00
2023-12-28T03:09:19.842Z,0.90
2023-12-28T03:10:22.281Z,1.07
2023-12-28T03:11:24.694Z,1.07
2023-12-28T03:12:27.191Z,1.13
2023-12-28T03:13:29.635Z,1.20
2023-12-28T03:14:32.049Z,1.10
2023-12-28T03:15:35.011Z,1.10
2023-12-28T03:16:37.657Z,1.10
2023-12-28T03:17:40.168Z,1.30
2023-12-28T03:18:42.906Z,1.20
2023-12-28T03:19:45.383Z,1.03
2023-12-28T03:20:47.920Z,1.00
2023-12-28T03:21:50.368Z,1.20
2023-12-28T03:22:52.749Z,1.30
2023-12-28T03:23:56.911Z,1.10
2023-12-28T03:24:59.499Z,1.10
2023-12-28T03:26:02.280Z,1.20
2023-12-28T03:27:08.194Z,1.10
2023-12-28T03:28:10.566Z,1.10
2023-12-28T03:29:13.331Z,1.27
2023-12-28T03:30:16.084Z,1.10
2023-12-28T03:31:18.674Z,1.00
2023-12-28T03:32:21.256Z,1.13
2023-12-28T03:33:25.299Z,1.00
2023-12-28T03:34:30.635Z,1.10
2023-12-28T03:35:35.335Z,1.10
2023-12-28T03:36:37.951Z,1.10
2023-12-28T03:37:41.230Z,1.20
2023-12-28T03:38:43.564Z,1.07
2023-12-28T03:39:47.238Z,1.00
2023-12-28T03:40:51.516Z,1.30
2023-12-28T03:41:54.481Z,0.90
2023-12-28T03:42:57.124Z,1.10
2023-12-28T03:43:59.686Z,1.00
2023-12-28T03:45:02.054Z,1.10
2023-12-28T03:46:04.536Z,1.10
2023-12-28T03:47:07.260Z,1.20
2023-12-28T03:48:09.745Z,1.10
2023-12-28T03:49:12.326Z,1.10
2023-12-28T03:50:14.999Z,1.20
2023-12-28T03:51:17.840Z,1.10
2023-12-28T03:52:20.323Z,1.10
2023-12-28T03:53:22.672Z,1.10
2023-12-28T03:54:25.088Z,1.10
2023-12-28T03:55:27.927Z,1.40
2023-12-28T03:56:31.733Z,1.20
2023-12-28T03:57:34.151Z,1.10
2023-12-28T03:58:36.564Z,1.10
2023-12-28T03:59:38.976Z,1.10
2023-12-28T04:00:41.414Z,1.10
2023-12-28T04:01:44.415Z,1.10
2023-12-28T04:02:48.210Z,1.20
2023-12-28T04:03:52.157Z,1.20
2023-12-28T04:04:54.581Z,1.27
2023-12-28T04:05:57.120Z,1.20
2023-12-28T04:06:59.581Z,1.27
2023-12-28T04:08:02.682Z,1.10
2023-12-28T04:09:05.221Z,1.30
2023-12-28T04:10:08.394Z,1.30
2023-12-28T04:11:10.943Z,1.20
2023-12-28T04:12:14.210Z,1.30
2023-12-28T04:13:16.527Z,1.20
2023-12-28T04:14:20.400Z,1.30
2023-12-28T04:15:22.823Z,1.30
2023-12-28T04:16:25.569Z,1.20
2023-12-28T04:17:27.922Z,1.40
2023-12-28T04:18:31.655Z,1.40
2023-12-28T04:19:34.470Z,1.20
2023-12-28T04:20:36.930Z,1.30
2023-12-28T04:21:39.349Z,1.27
2023-12-28T04:22:42.239Z,1.30
2023-12-28T04:23:46.311Z,1.40
2023-12-28T04:24:48.681Z,1.20
2023-12-28T04:25:51.229Z,1.60
2023-12-28T04:26:54.861Z,1.33
2023-12-28T04:27:57.773Z,1.33
2023-12-28T04:29:00.444Z,1.53
2023-12-28T04:30:02.968Z,1.30
2023-12-28T04:31:07.853Z,1.40
2023-12-28T04:32:10.343Z,1.40
2023-12-28T04:33:12.785Z,1.30
2023-12-28T04:34:15.396Z,1.40
2023-12-28T04:35:17.844Z,1.30
2023-12-28T04:36:21.885Z,1.40
2023-12-28T04:37:24.897Z,1.30
2023-12-28T04:38:27.523Z,1.50
2023-12-28T04:39:29.934Z,1.50
2023-12-28T04:40:32.423Z,1.30
2023-12-28T04:41:34.770Z,1.30
2023-12-28T04:42:37.296Z,1.50
2023-12-28T04:43:40.210Z,1.50
2023-12-28T04:44:42.986Z,1.30
2023-12-28T04:45:46.344Z,1.40
2023-12-28T04:46:48.736Z,1.63
2023-12-28T04:47:51.274Z,1.40
2023-12-28T04:48:53.827Z,1.53
2023-12-28T04:49:56.392Z,1.40
2023-12-28T04:51:00.085Z,1.50
2023-12-28T04:52:02.892Z,1.43
2023-12-28T04:53:06.898Z,1.57
2023-12-28T04:54:09.389Z,1.50
2023-12-28T04:55:11.918Z,1.50
2023-12-28T04:56:14.319Z,1.50
2023-12-28T04:57:16.675Z,1.40
2023-12-28T04:58:19.024Z,1.40
2023-12-28T04:59:22.987Z,1.40
2023-12-28T05:00:25.351Z,1.50
2023-12-28T05:01:28.105Z,1.63
2023-12-28T05:02:30.468Z,1.30
2023-12-28T05:03:32.946Z,1.60
2023-12-28T05:04:39.914Z,1.40
2023-12-28T05:05:42.386Z,1.33
2023-12-28T05:06:44.790Z,1.33
2023-12-28T05:07:48.950Z,1.50
2023-12-28T05:08:51.315Z,1.17
2023-12-28T05:09:53.786Z,1.50
2023-12-28T05:10:56.108Z,1.30
2023-12-28T05:11:58.971Z,1.50
2023-12-28T05:13:02.506Z,1.50
2023-12-28T05:14:05.328Z,1.50
2023-12-28T05:15:09.796Z,1.40
2023-12-28T05:16:12.158Z,1.37
2023-12-28T05:17:14.742Z,1.30
2023-12-28T05:18:17.207Z,1.53
2023-12-28T05:19:19.742Z,1.50
2023-12-28T05:20:22.185Z,1.40
2023-12-28T05:21:24.668Z,1.30
2023-12-28T05:22:27.070Z,1.70
2023-12-28T05:23:29.438Z,1.50
2023-12-28T05:24:31.849Z,1.40
2023-12-28T05:25:34.262Z,1.30
2023-12-28T05:26:37.297Z,1.63
2023-12-28T05:27:41.538Z,1.50
2023-12-28T05:28:43.917Z,1.40
2023-12-28T05:29:47.310Z,1.40
2023-12-28T05:30:49.802Z,1.30
2023-12-28T05:31:52.146Z,1.50
2023-12-28T05:32:54.855Z,1.20
2023-12-28T05:33:58.413Z,1.30
2023-12-28T05:35:00.743Z,1.50
2023-12-28T05:36:03.512Z,1.37
2023-12-28T05:37:06.425Z,1.50
2023-12-28T05:38:08.795Z,1.40
2023-12-28T05:39:11.226Z,1.60
2023-12-28T05:40:13.782Z,1.50
2023-12-28T05:41:16.203Z,1.40
2023-12-28T05:42:18.578Z,1.30
2023-12-28T05:43:20.944Z,1.43
2023-12-28T05:44:23.386Z,1.50
2023-12-28T05:45:25.761Z,1.50
2023-12-28T05:46:28.225Z,1.60
2023-12-28T05:47:30.771Z,1.40
2023-12-28T05:48:33.509Z,1.50
2023-12-28T05:49:38.566Z,1.60
2023-12-28T05:50:41.393Z,1.40
2023-12-28T05:51:43.976Z,1.50
2023-12-28T05:52:46.434Z,1.58
2023-12-28T05:53:48.942Z,1.50
2023-12-28T05:54:51.379Z,1.50
2023-12-28T05:55:53.980Z,1.60
2023-12-28T05:56:57.804Z,1.60
2023-12-28T05:58:00.501Z,1.47
2023-12-28T05:59:03.153Z,1.40
2023-12-28T06:00:07.671Z,1.50
2023-12-28T06:01:14.962Z,1.40
2023-12-28T06:02:17.382Z,1.40
2023-12-28T06:03:19.803Z,1.30
2023-12-28T06:04:22.648Z,1.60
2023-12-28T06:05:25.172Z,1.60
2023-12-28T06:06:27.576Z,1.37
2023-12-28T06:07:30.141Z,1.50
2023-12-28T06:08:32.423Z,1.30
2023-12-28T06:09:34.862Z,1.40
2023-12-28T06:10:37.253Z,1.43
2023-12-28T06:11:39.595Z,1.17
2023-12-28T06:12:42.058Z,1.50
2023-12-28T06:13:44.413Z,1.60
2023-12-28T06:14:46.986Z,1.50
2023-12-28T06:15:49.461Z,1.40
2023-12-28T06:16:51.919Z,1.57
2023-12-28T06:17:54.463Z,1.40
2023-12-28T06:18:57.229Z,1.53
2023-12-28T06:19:59.754Z,1.40
2023-12-28T06:21:02.234Z,1.40
2023-12-28T06:22:05.170Z,1.47
2023-12-28T06:23:08.285Z,1.50
2023-12-28T06:24:10.775Z,1.50
2023-12-28T06:25:13.672Z,1.50
2023-12-28T06:26:16.007Z,1.40
2023-12-28T06:27:18.394Z,1.50
2023-12-28T06:28:21.974Z,1.50
2023-12-28T06:29:24.468Z,1.40
2023-12-28T06:30:26.910Z,1.40
2023-12-28T06:31:29.480Z,1.53
2023-12-28T06:32:32.252Z,1.57
2023-12-28T06:33:37.667Z,1.70
2023-12-28T06:34:41.385Z,1.57
2023-12-28T06:35:45.229Z,1.57
2023-12-28T06:36:47.613Z,1.60
2023-12-28T06:37:50.332Z,1.53
2023-12-28T06:38:52.693Z,1.60
2023-12-28T06:39:55.185Z,1.40
2023-12-28T06:40:57.636Z,1.50
2023-12-28T06:41:59.981Z,1.70
2023-12-28T06:43:02.452Z,1.60
2023-12-28T06:44:05.054Z,1.67
2023-12-28T06:45:07.700Z,1.60
2023-12-28T06:46:10.163Z,1.50
2023-12-28T06:47:12.555Z,1.70
2023-12-28T06:48:15.079Z,1.60
2023-12-28T06:49:17.705Z,1.70
2023-12-28T06:50:20.127Z,1.70
2023-12-28T06:51:23.880Z,1.70
2023-12-28T06:52:26.377Z,1.53
2023-12-28T06:53:28.877Z,1.60
2023-12-28T06:54:31.360Z,1.77
2023-12-28T06:55:33.815Z,1.60
2023-12-28T06:56:36.260Z,1.70
2023-12-28T06:57:38.921Z,1.53
2023-12-28T06:58:41.647Z,1.50
2023-12-28T06:59:44.369Z,1.63
2023-12-28T07:00:46.877Z,1.70
2023-12-28T07:01:50.854Z,1.80
2023-12-28T07:02:53.726Z,1.70
2023-12-28T07:03:56.132Z,1.57
2023-12-28T07:04:59.786Z,1.63
2023-12-28T07:06:04.117Z,1.70
2023-12-28T07:07:06.457Z,1.80
2023-12-28T07:08:08.875Z,1.90
2023-12-28T07:09:11.645Z,1.80
2023-12-28T07:10:14.082Z,2.20
2023-12-28T07:11:16.465Z,1.90
2023-12-28T07:12:21.833Z,2.10
2023-12-28T07:13:24.332Z,1.80
2023-12-28T07:14:26.705Z,1.80
2023-12-28T07:15:29.246Z,2.10
2023-12-28T07:16:31.681Z,2.50
2023-12-28T07:17:34.257Z,2.83
2023-12-28T07:18:37.153Z,2.50
2023-12-28T07:19:39.709Z,2.37
2023-12-28T07:20:42.440Z,2.10
2023-12-28T07:21:44.934Z,1.90
2023-12-28T07:22:47.447Z,1.70
2023-12-28T07:23:50.734Z,2.00
2023-12-28T07:24:53.220Z,1.83
2023-12-28T07:25:55.670Z,1.80
2023-12-28T07:26:57.966Z,1.90
2023-12-28T07:28:00.619Z,1.90
2023-12-28T07:29:03.173Z,1.70
2023-12-28T07:30:06.360Z,2.00
2023-12-28T07:31:08.980Z,1.90
2023-12-28T07:32:11.939Z,2.03
2023-12-28T07:33:14.455Z,1.87
2023-12-28T07:34:16.989Z,1.90
2023-12-28T07:35:20.008Z,1.80
2023-12-28T07:36:22.695Z,1.90
2023-12-28T07:37:25.917Z,1.80
2023-12-28T07:38:28.296Z,1.70
2023-12-28T07:39:31.145Z,1.80
2023-12-28T07:40:33.929Z,1.90
2023-12-28T07:41:36.324Z,1.70
2023-12-28T07:42:38.736Z,1.90
2023-12-28T07:43:41.120Z,1.83
2023-12-28T07:44:44.656Z,1.90
2023-12-28T07:45:47.133Z,2.00
2023-12-28T07:46:49.521Z,1.80
2023-12-28T07:47:53.211Z,1.83
2023-12-28T07:48:56.837Z,1.80
2023-12-28T07:49:59.236Z,1.80
2023-12-28T07:51:08.218Z,1.90
2023-12-28T07:52:10.796Z,1.90
2023-12-28T07:53:13.351Z,1.90
2023-12-28T07:54:15.787Z,1.90
2023-12-28T07:55:18.418Z,2.00
2023-12-28T07:56:20.859Z,1.83
2023-12-28T07:57:23.263Z,1.77
2023-12-28T07:58:25.681Z,1.80
2023-12-28T07:59:28.077Z,1.80
2023-12-28T08:00:30.799Z,1.70
2023-12-28T08:01:36.163Z,1.90
2023-12-28T08:02:38.810Z,1.90
2023-12-28T08:03:41.294Z,1.77
2023-12-28T08:04:44.135Z,1.60
2023-12-28T08:05:46.733Z,1.80
2023-12-28T08:06:49.324Z,1.90
2023-12-28T08:07:52.036Z,1.80
2023-12-28T08:08:55.254Z,1.90
2023-12-28T08:09:57.571Z,1.80
2023-12-28T08:10:59.955Z,1.87
2023-12-28T08:12:04.239Z,1.60
2023-12-28T08:13:06.681Z,1.70
2023-12-28T08:14:09.415Z,1.83
2023-12-28T08:15:11.815Z,1.70
2023-12-28T08:16:14.190Z,1.80
2023-12-28T08:17:16.516Z,1.80
2023-12-28T08:18:19.079Z,1.90
2023-12-28T08:19:21.657Z,1.80
2023-12-28T08:20:24.063Z,1.70
2023-12-28T08:21:26.915Z,1.70
2023-12-28T08:22:29.787Z,2.00
2023-12-28T08:23:32.600Z,1.83
2023-12-28T08:24:35.801Z,1.70
2023-12-28T08:25:38.546Z,1.83
2023-12-28T08:26:41.284Z,1.93
2023-12-28T08:27:43.750Z,2.00
2023-12-28T08:28:46.122Z,1.80
2023-12-28T08:29:48.531Z,1.83
2023-12-28T08:30:51.005Z,1.90
2023-12-28T08:31:53.838Z,2.00
2023-12-28T08:32:56.431Z,1.80
2023-12-28T08:33:59.038Z,2.20
2023-12-28T08:35:01.634Z,1.70
2023-12-28T08:36:08.372Z,1.80
2023-12-28T08:37:10.776Z,1.70
2023-12-28T08:38:13.182Z,1.70
2023-12-28T08:39:15.701Z,1.70
2023-12-28T08:40:18.139Z,1.90
2023-12-28T08:41:25.531Z,1.93
2023-12-28T08:42:27.921Z,1.77
2023-12-28T08:43:31.146Z,1.70
2023-12-28T08:44:34.201Z,1.87
2023-12-28T08:45:37.188Z,1.70
2023-12-28T08:46:39.744Z,1.70
2023-12-28T08:47:42.110Z,1.90
2023-12-28T08:48:46.578Z,1.90
2023-12-28T08:49:49.134Z,1.90
2023-12-28T08:50:51.994Z,1.87
2023-12-28T08:51:54.375Z,1.90
2023-12-28T08:52:57.000Z,1.80
2023-12-28T08:53:59.382Z,1.93
2023-12-28T08:55:02.588Z,1.60
2023-12-28T08:56:17.830Z,1.80
2023-12-28T08:57:31.295Z,1.83
2023-12-28T08:58:42.434Z,1.80
2023-12-28T08:59:45.046Z,1.90
2023-12-28T09:00:48.303Z,1.90
2023-12-28T09:01:54.167Z,2.10
2023-12-28T09:02:56.633Z,1.93
2023-12-28T09:04:00.456Z,2.00
2023-12-28T09:05:02.869Z,1.90
2023-12-28T09:06:05.520Z,1.77
2023-12-28T09:07:08.148Z,2.00
2023-12-28T09:08:10.736Z,1.87
2023-12-28T09:09:13.729Z,1.70
2023-12-28T09:10:16.205Z,1.70
2023-12-28T09:11:19.428Z,1.70
2023-12-28T09:12:21.819Z,1.97
2023-12-28T09:13:24.231Z,1.70
2023-12-28T09:14:26.547Z,1.70
2023-12-28T09:15:29.029Z,2.03
2023-12-28T09:16:32.543Z,1.80
2023-12-28T09:17:35.755Z,2.00
2023-12-28T09:18:38.998Z,1.80
2023-12-28T09:19:42.456Z,2.00
2023-12-28T09:20:45.113Z,1.97
2023-12-28T09:21:47.526Z,2.10
2023-12-28T09:22:54.802Z,2.10
2023-12-28T09:23:57.250Z,2.10
2023-12-28T09:24:59.724Z,2.07
2023-12-28T09:26:06.635Z,1.83
2023-12-28T09:27:09.064Z,2.00
2023-12-28T09:28:11.514Z,1.80
2023-12-28T09:29:13.895Z,1.80
2023-12-28T09:30:17.108Z,1.73
2023-12-28T09:31:19.643Z,1.73
2023-12-28T09:32:22.557Z,1.83
2023-12-28T09:33:25.596Z,1.90
2023-12-28T09:34:28.147Z,1.70
2023-12-28T09:35:31.852Z,1.80
2023-12-28T09:36:34.341Z,1.80
2023-12-28T09:37:37.504Z,1.70
2023-12-28T09:38:40.317Z,1.60
2023-12-28T09:39:43.950Z,1.80
2023-12-28T09:40:46.532Z,1.70
2023-12-28T09:41:54.297Z,1.80
2023-12-28T09:43:14.560Z,1.80
2023-12-28T09:44:20.087Z,1.67
2023-12-28T09:45:22.594Z,1.50
2023-12-28T09:46:25.386Z,1.80
2023-12-28T09:47:27.829Z,1.70
2023-12-28T09:48:33.060Z,1.90
2023-12-28T09:49:38.675Z,1.70
2023-12-28T09:50:41.336Z,1.80
2023-12-28T09:51:43.783Z,1.93
2023-12-28T09:52:46.942Z,1.80
2023-12-28T09:53:49.341Z,2.00
2023-12-28T09:54:51.968Z,1.70
2023-12-28T09:55:54.771Z,1.63
2023-12-28T09:56:58.112Z,1.70
2023-12-28T09:58:01.812Z,1.70
2023-12-28T09:59:06.105Z,1.70
2023-12-28T10:00:10.456Z,1.70
2023-12-28T10:01:15.861Z,1.80
2023-12-28T10:02:19.380Z,1.70
2023-12-28T10:03:21.879Z,1.60
2023-12-28T10:04:25.023Z,1.70
2023-12-28T10:05:27.596Z,1.88
2023-12-28T10:06:30.277Z,1.70
2023-12-28T10:07:32.804Z,1.70
2023-12-28T10:08:36.264Z,1.73
2023-12-28T10:09:38.823Z,1.70
2023-12-28T10:10:41.940Z,1.70
2023-12-28T10:11:44.471Z,1.73
2023-12-28T10:12:48.239Z,1.70
2023-12-28T10:13:52.173Z,1.70
2023-12-28T10:14:54.840Z,1.80
2023-12-28T10:16:00.628Z,1.77
2023-12-28T10:17:03.794Z,1.80
2023-12-28T10:18:06.605Z,1.63
2023-12-28T10:19:09.125Z,1.90
2023-12-28T10:20:11.681Z,1.70
2023-12-28T10:21:14.291Z,1.80
2023-12-28T10:22:16.801Z,1.80
2023-12-28T10:23:20.531Z,1.80
2023-12-28T10:24:23.015Z,2.00
2023-12-28T10:25:25.585Z,1.70
2023-12-28T10:26:29.131Z,2.00
2023-12-28T10:27:31.575Z,1.90
2023-12-28T10:28:34.780Z,1.80
2023-12-28T10:29:37.568Z,1.80
2023-12-28T10:30:42.595Z,1.85
2023-12-28T10:31:46.385Z,1.77
2023-12-28T10:32:49.462Z,1.73
2023-12-28T10:33:52.483Z,1.70
2023-12-28T10:34:55.597Z,1.80
2023-12-28T10:35:59.877Z,1.87
2023-12-28T10:37:04.194Z,1.93
2023-12-28T10:38:11.609Z,1.77
2023-12-28T10:39:20.205Z,1.80
2023-12-28T10:40:23.289Z,1.80
2023-12-28T10:41:26.916Z,1.60
2023-12-28T10:42:45.628Z,1.73
2023-12-28T10:43:55.467Z,1.87
2023-12-28T10:45:04.905Z,1.80
2023-12-28T10:46:08.991Z,1.80
2023-12-28T10:47:20.407Z,1.77
2023-12-28T10:48:36.309Z,1.90
2023-12-28T10:49:43.351Z,1.80
2023-12-28T10:50:51.644Z,1.90
2023-12-28T10:51:55.094Z,1.80
2023-12-28T10:53:06.891Z,1.90
2023-12-28T10:54:24.244Z,1.90
2023-12-28T10:55:41.080Z,1.70
2023-12-28T10:56:49.127Z,1.80
2023-12-28T10:58:05.199Z,1.80
2023-12-28T10:59:38.760Z,1.90
2023-12-28T11:00:54.544Z,1.80
2023-12-28T11:02:00.142Z,1.90
2023-12-28T11:03:04.984Z,1.70
2023-12-28T11:04:52.025Z,1.70
2023-12-28T11:05:57.885Z,1.60
2023-12-28T11:07:03.191Z,1.77
2023-12-28T11:08:08.143Z,1.70
2023-12-28T11:09:11.538Z,1.80
2023-12-28T11:10:14.963Z,1.70
2023-12-28T11:11:17.855Z,1.60
2023-12-28T11:12:21.294Z,1.70
2023-12-28T11:13:24.446Z,1.70
2023-12-28T11:14:29.271Z,1.77
2023-12-28T11:15:33.636Z,1.63
2023-12-28T11:16:38.833Z,1.60
2023-12-28T11:17:42.977Z,1.60
2023-12-28T11:18:46.101Z,1.70
2023-12-28T11:19:49.812Z,1.80
2023-12-28T11:20:52.928Z,1.90
2023-12-28T11:21:57.781Z,1.95
2023-12-28T11:23:00.905Z,1.60
2023-12-28T11:24:05.119Z,1.60
2023-12-28T11:25:07.807Z,2.10
2023-12-28T11:26:23.271Z,1.90
2023-12-28T11:27:26.180Z,1.83
2023-12-28T11:28:28.610Z,1.80
2023-12-28T11:29:32.545Z,1.83
2023-12-28T11:30:35.117Z,1.67
2023-12-28T11:31:38.440Z,1.73
2023-12-28T11:32:47.100Z,1.70
2023-12-28T11:33:55.472Z,1.83
2023-12-28T11:34:59.512Z,1.70
2023-12-28T11:36:01.971Z,1.70
2023-12-28T11:37:08.932Z,1.60
2023-12-28T11:38:13.918Z,1.57
2023-12-28T11:39:27.564Z,1.73
2023-12-28T11:40:29.913Z,1.60
2023-12-28T11:41:34.367Z,1.60
2023-12-28T11:42:56.913Z,1.70
2023-12-28T11:44:06.530Z,1.90
2023-12-28T11:45:09.697Z,1.97
2023-12-28T11:46:13.493Z,1.80
2023-12-28T11:47:24.694Z,1.70
2023-12-28T11:48:28.577Z,1.63
2023-12-28T11:49:31.326Z,1.80
2023-12-28T11:50:34.056Z,1.80
2023-12-28T11:51:39.087Z,1.80
2023-12-28T11:52:43.393Z,1.90
2023-12-28T11:53:47.805Z,1.63
2023-12-28T11:54:51.359Z,1.90
2023-12-28T11:56:02.109Z,1.70
2023-12-28T11:57:04.702Z,1.80
2023-12-28T11:58:07.086Z,1.90
2023-12-28T11:59:09.551Z,1.90
2023-12-28T12:00:12.086Z,1.63
2023-12-28T12:01:14.583Z,1.80
2023-12-28T12:02:17.611Z,1.93
2023-12-28T12:03:21.161Z,2.00
2023-12-28T12:04:23.777Z,1.67
2023-12-28T12:05:26.332Z,1.80
2023-12-28T12:06:28.767Z,1.90
2023-12-28T12:07:31.632Z,1.90
2023-12-28T12:08:34.105Z,1.80
2023-12-28T12:09:36.439Z,1.73
2023-12-28T12:10:38.865Z,1.70
2023-12-28T12:11:41.680Z,1.70
2023-12-28T12:12:47.102Z,1.90
2023-12-28T12:13:52.761Z,1.60
2023-12-28T12:14:56.612Z,1.70
2023-12-28T12:16:00.640Z,1.50
2023-12-28T12:17:03.863Z,1.53
2023-12-28T12:18:06.458Z,1.60
2023-12-28T12:19:09.465Z,1.60
2023-12-28T12:20:12.346Z,1.53
2023-12-28T12:21:14.737Z,1.40
2023-12-28T12:22:18.282Z,1.57
2023-12-28T12:23:20.757Z,1.63
2023-12-28T12:24:24.359Z,1.73
2023-12-28T12:25:27.006Z,1.60
2023-12-28T12:26:32.634Z,1.50
2023-12-28T12:27:36.065Z,1.50
2023-12-28T12:28:38.787Z,1.60
2023-12-28T12:29:41.965Z,1.60
2023-12-28T12:30:54.421Z,1.50
2023-12-28T12:31:57.687Z,1.57
2023-12-28T12:33:00.992Z,1.60
2023-12-28T12:34:04.823Z,1.60
2023-12-28T12:35:08.127Z,1.50
2023-12-28T12:36:10.702Z,1.50
2023-12-28T12:37:13.100Z,1.50
2023-12-28T12:38:15.694Z,1.70
2023-12-28T12:39:18.082Z,1.50
2023-12-28T12:40:23.872Z,1.43
2023-12-28T12:41:27.522Z,1.60
2023-12-28T12:42:29.957Z,1.63
2023-12-28T12:43:32.678Z,1.50
2023-12-28T12:44:36.066Z,1.43
2023-12-28T12:45:38.716Z,1.50
2023-12-28T12:46:41.090Z,1.60
2023-12-28T12:47:43.512Z,1.60
2023-12-28T12:48:56.536Z,1.63
2023-12-28T12:49:59.020Z,1.63
2023-12-28T12:51:04.629Z,1.53
2023-12-28T12:52:10.768Z,1.50
2023-12-28T12:53:13.607Z,1.50
2023-12-28T12:54:20.136Z,1.50
2023-12-28T12:55:23.919Z,2.00
2023-12-28T12:56:30.364Z,1.87
2023-12-28T12:57:32.955Z,1.70
2023-12-28T12:58:37.888Z,1.70
2023-12-28T12:59:43.592Z,1.70
2023-12-28T13:00:46.854Z,1.80
2023-12-28T13:01:53.990Z,1.67
2023-12-28T13:02:57.968Z,1.50
2023-12-28T13:04:01.990Z,1.43
2023-12-28T13:05:10.082Z,1.50
2023-12-28T13:06:12.517Z,1.50
2023-12-28T13:07:14.885Z,1.60
2023-12-28T13:08:17.447Z,1.47
2023-12-28T13:09:19.971Z,1.80
2023-12-28T13:10:22.393Z,2.10
2023-12-28T13:11:27.839Z,1.60
2023-12-28T13:12:30.246Z,1.50
2023-12-28T13:13:33.777Z,1.30
2023-12-28T13:14:36.448Z,1.57
2023-12-28T13:15:39.299Z,1.33
2023-12-28T13:16:41.935Z,1.40
2023-12-28T13:17:44.850Z,1.27
2023-12-28T13:18:47.466Z,1.27
2023-12-28T13:19:50.097Z,1.47
2023-12-28T13:20:52.862Z,1.63
2023-12-28T13:21:55.432Z,1.70
2023-12-28T13:22:58.783Z,1.77
2023-12-28T13:24:03.328Z,1.73
2023-12-28T13:25:06.199Z,1.70
2023-12-28T13:26:08.959Z,1.63
2023-12-28T13:27:11.786Z,1.60
2023-12-28T13:28:14.906Z,1.40
2023-12-28T13:29:17.277Z,1.37
2023-12-28T13:30:20.454Z,1.57
2023-12-28T13:31:23.000Z,1.47
2023-12-28T13:32:25.464Z,1.50
2023-12-28T13:33:28.055Z,1.50
2023-12-28T13:34:30.718Z,1.43
2023-12-28T13:35:34.868Z,1.40
2023-12-28T13:36:37.405Z,1.40
2023-12-28T13:37:39.787Z,1.60
2023-12-28T13:38:42.118Z,1.37
2023-12-28T13:39:44.830Z,1.53
2023-12-28T13:40:47.222Z,1.30
2023-12-28T13:41:49.617Z,1.40
2023-12-28T13:42:52.296Z,1.33
2023-12-28T13:44:02.637Z,1.43
2023-12-28T13:45:05.878Z,1.40
2023-12-28T13:46:08.379Z,1.20
2023-12-28T13:47:10.938Z,1.40
2023-12-28T13:48:13.418Z,1.23
2023-12-28T13:49:15.990Z,1.50
2023-12-28T13:50:18.373Z,1.30
2023-12-28T13:51:20.778Z,1.30
2023-12-28T13:52:23.218Z,1.40
2023-12-28T13:53:25.608Z,1.30
2023-12-28T13:54:29.357Z,1.20
2023-12-28T13:55:31.838Z,1.30
2023-12-28T13:56:34.311Z,1.20
2023-12-28T13:57:36.802Z,1.40
2023-12-28T13:58:39.281Z,1.50
2023-12-28T13:59:41.723Z,1.40
2023-12-28T14:00:44.665Z,1.40
2023-12-28T14:01:47.431Z,1.10
2023-12-28T14:02:49.846Z,1.20
2023-12-28T14:03:53.844Z,1.13
2023-12-28T14:04:57.635Z,1.40
2023-12-28T14:06:00.408Z,1.23